Terminal Aerodrome Forecast
Issued by NWS Mt. Holly, NJ

Home | Current Version | Previous Version | Text Only | Print | Product List | Glossary On
Versions: 1 2 3 4 5 6 7 8 9 10 11 12 13 14 15 16 17 18 19 20 21 22 23 24
719
FTUS41 KPHI 052206 AAA
TAFRDG
TAF AMD
KRDG 052206Z 0522/0618 31010G18KT P6SM FEW060
     FM060000 31010KT P6SM FEW060
     FM060200 26003KT P6SM SKC
     FM061500 23007KT P6SM SCT200=

USA.gov is the U.S. government's official web portal to all federal, state and local government web resources and services.